sensor_id;sensor_type;location;lat;lon;timestamp;pressure;altitude;pressure_sealevel;temperature;humidity
73700;BME280;62005;50.082;8.988;2024-02-04T00:01:39;101458.19;;;10.13;100.00
73700;BME280;62005;50.082;8.988;2024-02-04T00:04:04;101474.50;;;10.26;100.00
73700;BME280;62005;50.082;8.988;2024-02-04T00:06:30;101458.69;;;10.23;100.00
73700;BME280;62005;50.082;8.988;2024-02-04T00:08:55;101464.09;;;10.23;100.00
73700;BME280;62005;50.082;8.988;2024-02-04T00:11:21;101459.75;;;10.22;100.00
73700;BME280;62005;50.082;8.988;2024-02-04T00:13:46;101461.66;;;10.28;100.00
73700;BME280;62005;50.082;8.988;2024-02-04T00:16:12;101443.47;;;10.16;100.00
73700;BME280;62005;50.082;8.988;2024-02-04T00:18:38;101455.34;;;10.21;100.00
73700;BME280;62005;50.082;8.988;2024-02-04T00:21:04;101443.28;;;10.17;100.00
73700;BME280;62005;50.082;8.988;2024-02-04T00:23:29;101450.59;;;10.23;100.00
73700;BME280;62005;50.082;8.988;2024-02-04T00:25:54;101443.28;;;10.17;100.00
73700;BME280;62005;50.082;8.988;2024-02-04T00:28:20;101452.28;;;10.24;100.00
73700;BME280;62005;50.082;8.988;2024-02-04T00:30:46;101441.22;;;10.19;100.00
73700;BME280;62005;50.082;8.988;2024-02-04T00:33:11;101443.28;;;10.17;100.00
73700;BME280;62005;50.082;8.988;2024-02-04T00:35:37;101446.97;;;10.16;100.00
73700;BME280;62005;50.082;8.988;2024-02-04T00:38:02;101441.97;;;10.13;100.00
73700;BME280;62005;50.082;8.988;2024-02-04T00:40:28;101452.38;;;10.16;100.00
73700;BME280;62005;50.082;8.988;2024-02-04T00:42:54;101443.28;;;10.17;100.00
73700;BME280;62005;50.082;8.988;2024-02-04T00:45:19;101439.47;;;10.12;100.00
73700;BME280;62005;50.082;8.988;2024-02-04T00:47:45;101440.31;;;10.12;100.00
73700;BME280;62005;50.082;8.988;2024-02-04T00:50:10;101445.06;;;10.10;100.00
73700;BME280;62005;50.082;8.988;2024-02-04T00:52:35;101433.59;;;10.08;100.00
73700;BME280;62005;50.082;8.988;2024-02-04T00:55:01;101441.34;;;10.11;100.00
73700;BME280;62005;50.082;8.988;2024-02-04T00:57:26;101445.72;;;10.12;100.00
73700;BME280;62005;50.082;8.988;2024-02-04T00:59:53;101446.38;;;10.14;100.00
73700;BME280;62005;50.082;8.988;2024-02-04T01:02:18;101435.31;;;10.09;100.00
73700;BME280;62005;50.082;8.988;2024-02-04T01:04:43;101441.06;;;10.06;100.00
73700;BME280;62005;50.082;8.988;2024-02-04T01:07:09;101446.56;;;10.13;100.00
73700;BME280;62005;50.082;8.988;2024-02-04T01:09:34;101442.38;;;10.10;100.00
73700;BME280;62005;50.082;8.988;2024-02-04T01:12:00;101439.19;;;10.07;100.00
73700;BME280;62005;50.082;8.988;2024-02-04T01:14:25;101432.78;;;10.08;100.00
73700;BME280;62005;50.082;8.988;2024-02-04T01:16:50;101433.59;;;10.08;100.00
73700;BME280;62005;50.082;8.988;2024-02-04T01:19:16;101430.25;;;10.06;100.00
73700;BME280;62005;50.082;8.988;2024-02-04T01:21:41;101423.16;;;10.05;100.00
73700;BME280;62005;50.082;8.988;2024-02-04T01:24:07;101447.75;;;10.10;100.00
73700;BME280;62005;50.082;8.988;2024-02-04T01:26:32;101436.56;;;10.13;100.00
73700;BME280;62005;50.082;8.988;2024-02-04T01:28:58;101417.41;;;10.08;100.00
73700;BME280;62005;50.082;8.988;2024-02-04T01:31:23;101441.50;;;10.10;100.00
73700;BME280;62005;50.082;8.988;2024-02-04T01:33:48;101446.91;;;10.10;100.00
73700;BME280;62005;50.082;8.988;2024-02-04T01:36:14;101427.28;;;10.01;100.00
73700;BME280;62005;50.082;8.988;2024-02-04T01:38:39;101436.31;;;10.08;100.00
73700;BME280;62005;50.082;8.988;2024-02-04T01:41:05;101418.16;;;10.02;100.00
73700;BME280;62005;50.082;8.988;2024-02-04T01:43:30;101434.38;;;10.02;100.00
73700;BME280;62005;50.082;8.988;2024-02-04T01:45:56;101444.41;;;10.08;100.00
73700;BME280;62005;50.082;8.988;2024-02-04T01:48:22;101443.50;;;10.01;100.00
73700;BME280;62005;50.082;8.988;2024-02-04T01:50:50;101449.25;;;9.98;100.00
73700;BME280;62005;50.082;8.988;2024-02-04T01:53:17;101450.19;;;10.05;100.00
73700;BME280;62005;50.082;8.988;2024-02-04T01:55:47;101447.13;;;10.08;100.00
73700;BME280;62005;50.082;8.988;2024-02-04T01:58:14;101438.72;;;10.03;100.00
73700;BME280;62005;50.082;8.988;2024-02-04T02:00:40;101440.41;;;10.04;100.00
73700;BME280;62005;50.082;8.988;2024-02-04T02:03:06;101453.53;;;10.07;100.00
73700;BME280;62005;50.082;8.988;2024-02-04T02:05:33;101461.47;;;10.09;100.00
73700;BME280;62005;50.082;8.988;2024-02-04T02:07:59;101450.19;;;10.05;100.00
73700;BME280;62005;50.082;8.988;2024-02-04T02:10:24;101433.84;;;9.92;100.00
73700;BME280;62005;50.082;8.988;2024-02-04T02:13:39;101458.28;;;10.05;100.00
73700;BME280;62005;50.082;8.988;2024-02-04T02:15:49;101440.16;;;9.99;100.00
73700;BME280;62005;50.082;8.988;2024-02-04T02:21:00;101446.47;;;10.06;100.00
73700;BME280;62005;50.082;8.988;2024-02-04T02:23:30;101444.78;;;10.05;100.00
73700;BME280;62005;50.082;8.988;2024-02-04T02:25:57;101420.59;;;9.97;100.00
73700;BME280;62005;50.082;8.988;2024-02-04T02:28:23;101415.59;;;9.94;100.00
73700;BME280;62005;50.082;8.988;2024-02-04T02:30:48;101429.75;;;9.96;100.00
73700;BME280;62005;50.082;8.988;2024-02-04T02:33:14;101433.44;;;9.95;100.00
73700;BME280;62005;50.082;8.988;2024-02-04T02:35:40;101435.50;;;9.93;100.00
73700;BME280;62005;50.082;8.988;2024-02-04T02:38:15;101419.28;;;9.93;100.00
73700;BME280;62005;50.082;8.988;2024-02-04T02:40:46;101428.50;;;9.99;100.00
73700;BME280;62005;50.082;8.988;2024-02-04T02:43:13;101417.63;;;9.92;100.00
73700;BME280;62005;50.082;8.988;2024-02-04T02:45:41;101430.56;;;9.97;100.00
73700;BME280;62005;50.082;8.988;2024-02-04T02:48:07;101423.50;;;9.96;100.00
73700;BME280;62005;50.082;8.988;2024-02-04T02:50:35;101422.19;;;9.92;100.00
73700;BME280;62005;50.082;8.988;2024-02-04T02:53:00;101402.97;;;9.80;100.00
73700;BME280;62005;50.082;8.988;2024-02-04T02:55:26;101409.22;;;9.81;100.00
73700;BME280;62005;50.082;8.988;2024-02-04T02:57:51;101416.72;;;9.85;100.00
73700;BME280;62005;50.082;8.988;2024-02-04T03:00:17;101404.66;;;9.81;100.00
73700;BME280;62005;50.082;8.988;2024-02-04T03:02:42;101414.22;;;9.84;100.00
73700;BME280;62005;50.082;8.988;2024-02-04T03:05:08;101421.69;;;9.82;100.00
73700;BME280;62005;50.082;8.988;2024-02-04T03:07:33;101410.44;;;9.78;100.00
73700;BME280;62005;50.082;8.988;2024-02-04T03:09:59;101407.75;;;9.78;100.00
73700;BME280;62005;50.082;8.988;2024-02-04T03:12:24;101401.31;;;9.79;100.00
73700;BME280;62005;50.082;8.988;2024-02-04T03:14:49;101384.19;;;9.72;100.00
73700;BME280;62005;50.082;8.988;2024-02-04T03:17:15;101403.34;;;9.77;100.00
73700;BME280;62005;50.082;8.988;2024-02-04T03:19:45;101389.13;;;9.69;100.00
73700;BME280;62005;50.082;8.988;2024-02-04T03:22:12;101397.03;;;9.70;100.00
73700;BME280;62005;50.082;8.988;2024-02-04T03:24:37;101401.81;;;9.68;100.00
73700;BME280;62005;50.082;8.988;2024-02-04T03:27:03;101411.59;;;9.69;100.00
73700;BME280;62005;50.082;8.988;2024-02-04T03:29:28;101399.47;;;9.65;100.00
73700;BME280;62005;50.082;8.988;2024-02-04T03:31:55;101410.38;;;9.72;100.00
73700;BME280;62005;50.082;8.988;2024-02-04T03:34:21;101404.13;;;9.71;100.00
73700;BME280;62005;50.082;8.988;2024-02-04T03:36:47;101403.28;;;9.71;100.00
73700;BME280;62005;50.082;8.988;2024-02-04T03:39:12;101399.94;;;9.69;100.00
73700;BME280;62005;50.082;8.988;2024-02-04T03:41:37;101395.50;;;9.61;100.00
73700;BME280;62005;50.082;8.988;2024-02-04T03:44:04;101393.72;;;9.68;100.00
73700;BME280;62005;50.082;8.988;2024-02-04T03:46:29;101388.31;;;9.68;100.00
73700;BME280;62005;50.082;8.988;2024-02-04T03:48:55;101383.94;;;9.67;100.00
73700;BME280;62005;50.082;8.988;2024-02-04T03:51:20;101381.22;;;9.67;100.00
73700;BME280;62005;50.082;8.988;2024-02-04T03:53:47;101379.97;;;9.63;100.00
73700;BME280;62005;50.082;8.988;2024-02-04T03:56:13;101380.78;;;9.64;100.00
73700;BME280;62005;50.082;8.988;2024-02-04T03:58:38;101379.91;;;9.57;100.00
73700;BME280;62005;50.082;8.988;2024-02-04T04:01:04;101378.94;;;9.64;100.00
73700;BME280;62005;50.082;8.988;2024-02-04T04:03:29;101376.63;;;9.61;100.00
73700;BME280;62005;50.082;8.988;2024-02-04T04:05:55;101379.69;;;9.58;100.00
73700;BME280;62005;50.082;8.988;2024-02-04T04:08:20;101371.16;;;9.55;100.00
73700;BME280;62005;50.082;8.988;2024-02-04T04:10:46;101349.50;;;9.48;100.00
73700;BME280;62005;50.082;8.988;2024-02-04T04:13:12;101387.16;;;9.56;100.00
73700;BME280;62005;50.082;8.988;2024-02-04T04:15:38;101386.09;;;9.57;100.00
73700;BME280;62005;50.082;8.988;2024-02-04T04:18:04;101386.09;;;9.57;100.00
73700;BME280;62005;50.082;8.988;2024-02-04T04:20:29;101389.84;;;9.56;100.00
73700;BME280;62005;50.082;8.988;2024-02-04T04:22:54;101383.16;;;9.52;100.00
73700;BME280;62005;50.082;8.988;2024-02-04T04:25:20;101389.84;;;9.56;100.00
73700;BME280;62005;50.082;8.988;2024-02-04T04:27:45;101395.25;;;9.56;100.00
73700;BME280;62005;50.082;8.988;2024-02-04T04:30:13;101388.94;;;9.49;100.00
73700;BME280;62005;50.082;8.988;2024-02-04T04:32:39;101389.78;;;9.50;100.00
73700;BME280;62005;50.082;8.988;2024-02-04T04:35:05;101392.53;;;9.56;100.00
73700;BME280;62005;50.082;8.988;2024-02-04T04:37:30;101397.69;;;9.51;100.00
73700;BME280;62005;50.082;8.988;2024-02-04T04:39:55;101390.25;;;9.53;100.00
73700;BME280;62005;50.082;8.988;2024-02-04T04:42:21;101390.25;;;9.53;100.00
73700;BME280;62005;50.082;8.988;2024-02-04T04:44:46;101388.81;;;9.57;100.00
73700;BME280;62005;50.082;8.988;2024-02-04T04:47:12;101383.53;;;9.49;100.00
73700;BME280;62005;50.082;8.988;2024-02-04T04:49:37;101376.47;;;9.48;100.00
73700;BME280;62005;50.082;8.988;2024-02-04T04:52:03;101378.13;;;9.49;100.00
73700;BME280;62005;50.082;8.988;2024-02-04T04:54:28;101384.84;;;9.53;100.00
73700;BME280;62005;50.082;8.988;2024-02-04T04:56:54;101388.19;;;9.55;100.00
73700;BME280;62005;50.082;8.988;2024-02-04T04:59:20;101388.53;;;9.52;100.00
73700;BME280;62005;50.082;8.988;2024-02-04T05:01:46;101392.28;;;9.51;100.00
73700;BME280;62005;50.082;8.988;2024-02-04T05:04:12;101363.09;;;9.40;100.00
73700;BME280;62005;50.082;8.988;2024-02-04T05:06:37;101392.28;;;9.51;100.00
73700;BME280;62005;50.082;8.988;2024-02-04T05:09:03;101398.59;;;9.58;100.00
73700;BME280;62005;50.082;8.988;2024-02-04T05:11:28;101391.50;;;9.57;100.00
73700;BME280;62005;50.082;8.988;2024-02-04T05:13:53;101381.09;;;9.54;100.00
73700;BME280;62005;50.082;8.988;2024-02-04T05:16:19;101380.72;;;9.57;100.00
73700;BME280;62005;50.082;8.988;2024-02-04T05:18:45;101383.59;;;9.56;100.00
73700;BME280;62005;50.082;8.988;2024-02-04T05:21:11;101384.06;;;9.59;100.00
73700;BME280;62005;50.082;8.988;2024-02-04T05:23:36;101380.34;;;9.60;100.00
73700;BME280;62005;50.082;8.988;2024-02-04T05:26:03;101394.84;;;9.59;100.00
73700;BME280;62005;50.082;8.988;2024-02-04T05:28:29;101384.06;;;9.59;100.00
73700;BME280;62005;50.082;8.988;2024-02-04T05:30:55;101367.41;;;9.56;100.00
73700;BME280;62005;50.082;8.988;2024-02-04T05:33:20;101377.38;;;9.55;100.00
73700;BME280;62005;50.082;8.988;2024-02-04T05:35:45;101374.03;;;9.53;100.00
73700;BME280;62005;50.082;8.988;2024-02-04T05:38:11;101380.44;;;9.52;100.00
73700;BME280;62005;50.082;8.988;2024-02-04T05:40:36;101384.44;;;9.56;100.00
73700;BME280;62005;50.082;8.988;2024-02-04T05:43:02;101376.09;;;9.51;100.00
73700;BME280;62005;50.082;8.988;2024-02-04T05:45:32;101381.50;;;9.51;100.00
73700;BME280;62005;50.082;8.988;2024-02-04T05:47:58;101371.06;;;9.48;100.00
73700;BME280;62005;50.082;8.988;2024-02-04T05:50:23;101381.50;;;9.51;100.00
73700;BME280;62005;50.082;8.988;2024-02-04T05:52:49;101379.81;;;9.50;100.00
73700;BME280;62005;50.082;8.988;2024-02-04T05:55:15;101391.25;;;9.52;100.00
73700;BME280;62005;50.082;8.988;2024-02-04T05:57:43;101385.22;;;9.50;100.00
73700;BME280;62005;50.082;8.988;2024-02-04T06:00:09;101382.25;;;9.45;100.00
73700;BME280;62005;50.082;8.988;2024-02-04T06:02:35;101395.38;;;9.48;100.00
73700;BME280;62005;50.082;8.988;2024-02-04T06:05:01;101396.38;;;9.47;100.00
73700;BME280;62005;50.082;8.988;2024-02-04T06:07:27;101397.59;;;9.45;100.00
73700;BME280;62005;50.082;8.988;2024-02-04T06:09:52;101404.28;;;9.49;100.00
73700;BME280;62005;50.082;8.988;2024-02-04T06:12:18;101396.84;;;9.51;100.00
73700;BME280;62005;50.082;8.988;2024-02-04T06:14:43;101405.13;;;9.49;100.00
73700;BME280;62005;50.082;8.988;2024-02-04T06:17:09;101389.31;;;9.46;100.00
73700;BME280;62005;50.082;8.988;2024-02-04T06:19:35;101367.59;;;9.33;100.00
73700;BME280;62005;50.082;8.988;2024-02-04T06:22:00;101388.94;;;9.49;100.00
73700;BME280;62005;50.082;8.988;2024-02-04T06:24:26;101373.97;;;9.47;100.00
73700;BME280;62005;50.082;8.988;2024-02-04T06:26:51;101381.88;;;9.48;100.00
73700;BME280;62005;50.082;8.988;2024-02-04T06:29:17;101388.53;;;9.52;100.00
73700;BME280;62005;50.082;8.988;2024-02-04T06:31:46;101383.16;;;9.52;100.00
73700;BME280;62005;50.082;8.988;2024-02-04T06:34:12;101366.88;;;9.46;100.00
73700;BME280;62005;50.082;8.988;2024-02-04T06:36:37;101369.03;;;9.50;100.00
73700;BME280;62005;50.082;8.988;2024-02-04T06:39:03;101359.91;;;9.51;100.00
73700;BME280;62005;50.082;8.988;2024-02-04T06:41:28;101360.66;;;9.45;100.00
73700;BME280;62005;50.082;8.988;2024-02-04T06:43:54;101385.22;;;9.50;100.00
73700;BME280;62005;50.082;8.988;2024-02-04T06:46:26;101377.47;;;9.47;100.00
73700;BME280;62005;50.082;8.988;2024-02-04T06:48:52;101373.38;;;9.51;100.00
73700;BME280;62005;50.082;8.988;2024-02-04T06:51:18;101349.88;;;9.45;100.00
73700;BME280;62005;50.082;8.988;2024-02-04T06:53:44;101369.66;;;9.52;100.00
73700;BME280;62005;50.082;8.988;2024-02-04T06:56:09;101368.66;;;9.53;100.00
73700;BME280;62005;50.082;8.988;2024-02-04T06:58:40;101368.00;;;9.51;100.00
73700;BME280;62005;50.082;8.988;2024-02-04T07:01:06;101373.66;;;9.56;100.00
73700;BME280;62005;50.082;8.988;2024-02-04T07:03:34;101364.50;;;9.57;100.00
73700;BME280;62005;50.082;8.988;2024-02-04T07:06:00;101356.81;;;9.54;100.00
73700;BME280;62005;50.082;8.988;2024-02-04T07:08:26;101353.13;;;9.41;100.00
73700;BME280;62005;50.082;8.988;2024-02-04T07:10:52;101354.50;;;9.51;100.00
73700;BME280;62005;50.082;8.988;2024-02-04T07:13:17;101359.50;;;9.54;100.00
73700;BME280;62005;50.082;8.988;2024-02-04T07:15:43;101352.44;;;9.53;100.00
73700;BME280;62005;50.082;8.988;2024-02-04T07:18:09;101361.81;;;9.57;100.00
73700;BME280;62005;50.082;8.988;2024-02-04T07:20:34;101355.41;;;9.58;100.00
73700;BME280;62005;50.082;8.988;2024-02-04T07:23:00;101364.97;;;9.61;100.00
73700;BME280;62005;50.082;8.988;2024-02-04T07:25:25;101367.47;;;9.62;100.00
73700;BME280;62005;50.082;8.988;2024-02-04T07:27:51;101371.22;;;9.61;100.00
73700;BME280;62005;50.082;8.988;2024-02-04T07:30:16;101367.88;;;9.59;100.00
73700;BME280;62005;50.082;8.988;2024-02-04T07:32:42;101368.25;;;9.56;100.00
73700;BME280;62005;50.082;8.988;2024-02-04T07:35:07;101372.88;;;9.62;100.00
73700;BME280;62005;50.082;8.988;2024-02-04T07:37:34;101369.56;;;9.60;100.00
73700;BME280;62005;50.082;8.988;2024-02-04T07:40:00;101376.22;;;9.64;100.00
73700;BME280;62005;50.082;8.988;2024-02-04T07:42:26;101374.56;;;9.63;100.00
73700;BME280;62005;50.082;8.988;2024-02-04T07:44:52;101370.81;;;9.64;100.00
73700;BME280;62005;50.082;8.988;2024-02-04T07:47:17;101351.66;;;9.59;100.00
73700;BME280;62005;50.082;8.988;2024-02-04T07:49:44;101369.63;;;9.67;100.00
73700;BME280;62005;50.082;8.988;2024-02-04T07:52:10;101374.19;;;9.66;100.00
73700;BME280;62005;50.082;8.988;2024-02-04T07:54:38;101375.63;;;9.69;100.00
73700;BME280;62005;50.082;8.988;2024-02-04T07:57:03;101375.44;;;9.70;100.00
73700;BME280;62005;50.082;8.988;2024-02-04T07:59:29;101385.88;;;9.73;100.00
73700;BME280;62005;50.082;8.988;2024-02-04T08:01:54;101371.72;;;9.71;100.00
73700;BME280;62005;50.082;8.988;2024-02-04T08:04:20;101369.69;;;9.73;100.00
73700;BME280;62005;50.082;8.988;2024-02-04T08:06:45;101358.69;;;9.75;100.00
73700;BME280;62005;50.082;8.988;2024-02-04T08:09:11;101351.78;;;9.72;100.00
73700;BME280;62005;50.082;8.988;2024-02-04T08:11:37;101351.41;;;9.75;100.00
73700;BME280;62005;50.082;8.988;2024-02-04T08:14:02;101363.63;;;9.71;100.00
73700;BME280;62005;50.082;8.988;2024-02-04T08:16:28;101366.34;;;9.71;100.00
73700;BME280;62005;50.082;8.988;2024-02-04T08:18:53;101369.69;;;9.73;100.00
73700;BME280;62005;50.082;8.988;2024-02-04T08:21:19;101370.94;;;9.77;100.00
73700;BME280;62005;50.082;8.988;2024-02-04T08:23:44;101350.41;;;9.76;100.00
73700;BME280;62005;50.082;8.988;2024-02-04T08:26:10;101365.94;;;9.74;100.00
73700;BME280;62005;50.082;8.988;2024-02-04T08:28:35;101356.00;;;9.75;100.00
73700;BME280;62005;50.082;8.988;2024-02-04T08:31:01;101358.09;;;9.79;100.00
73700;BME280;62005;50.082;8.988;2024-02-04T08:33:26;101352.69;;;9.79;100.00
73700;BME280;62005;50.082;8.988;2024-02-04T08:35:52;101347.69;;;9.76;100.00
73700;BME280;62005;50.082;8.988;2024-02-04T08:38:17;101338.50;;;9.71;100.00
73700;BME280;62005;50.082;8.988;2024-02-04T08:40:43;101354.25;;;9.67;100.00
73700;BME280;62005;50.082;8.988;2024-02-04T08:43:08;101374.31;;;9.79;100.00
73700;BME280;62005;50.082;8.988;2024-02-04T08:45:34;101360.59;;;9.81;100.00
73700;BME280;62005;50.082;8.988;2024-02-04T08:47:59;101361.84;;;9.78;100.00
73700;BME280;62005;50.082;8.988;2024-02-04T08:50:25;101379.31;;;9.82;100.00
73700;BME280;62005;50.082;8.988;2024-02-04T08:52:50;101370.56;;;9.80;100.00
73700;BME280;62005;50.082;8.988;2024-02-04T08:55:15;101367.25;;;9.78;100.00
73700;BME280;62005;50.082;8.988;2024-02-04T08:57:41;101373.53;;;9.85;100.00
73700;BME280;62005;50.082;8.988;2024-02-04T09:00:07;101356.06;;;9.81;100.00
73700;BME280;62005;50.082;8.988;2024-02-04T09:02:37;101361.06;;;9.84;100.00
73700;BME280;62005;50.082;8.988;2024-02-04T09:05:04;101369.41;;;9.89;100.00
73700;BME280;62005;50.082;8.988;2024-02-04T09:07:30;101360.28;;;9.90;100.00
73700;BME280;62005;50.082;8.988;2024-02-04T09:09:56;101362.78;;;9.92;100.00
73700;BME280;62005;50.082;8.988;2024-02-04T09:12:22;101341.75;;;9.87;100.00
73700;BME280;62005;50.082;8.988;2024-02-04T09:14:47;101338.16;;;9.80;100.00
73700;BME280;62005;50.082;8.988;2024-02-04T09:17:13;101356.16;;;9.94;100.00
73700;BME280;62005;50.082;8.988;2024-02-04T09:19:39;101353.66;;;9.93;100.00
73700;BME280;62005;50.082;8.988;2024-02-04T09:22:04;101352.03;;;9.98;100.00
73700;BME280;62005;50.082;8.988;2024-02-04T09:24:30;101357.06;;;10.01;100.00
73700;BME280;62005;50.082;8.988;2024-02-04T09:26:55;101354.97;;;10.03;100.00
73700;BME280;62005;50.082;8.988;2024-02-04T09:29:20;101348.31;;;9.99;100.00
73700;BME280;62005;50.082;8.988;2024-02-04T09:31:46;101360.38;;;10.03;100.00
73700;BME280;62005;50.082;8.988;2024-02-04T09:34:12;101349.97;;;10.00;100.00
73700;BME280;62005;50.082;8.988;2024-02-04T09:36:39;101346.25;;;10.01;100.00
73700;BME280;62005;50.082;8.988;2024-02-04T09:39:04;101332.50;;;9.96;100.00
73700;BME280;62005;50.082;8.988;2024-02-04T09:41:31;101336.22;;;9.95;100.00
73700;BME280;62005;50.082;8.988;2024-02-04T09:43:58;101339.16;;;10.00;100.00
73700;BME280;62005;50.082;8.988;2024-02-04T09:46:23;101338.78;;;10.03;100.00
73700;BME280;62005;50.082;8.988;2024-02-04T09:48:49;101338.72;;;9.97;100.00
73700;BME280;62005;50.082;8.988;2024-02-04T09:51:16;101346.25;;;10.01;100.00
73700;BME280;62005;50.082;8.988;2024-02-04T09:53:44;101345.47;;;10.07;100.00
73700;BME280;62005;50.082;8.988;2024-02-04T09:56:11;101340.94;;;10.08;100.00
73700;BME280;62005;50.082;8.988;2024-02-04T09:58:37;101331.31;;;10.05;100.00
73700;BME280;62005;50.082;8.988;2024-02-04T10:01:04;101353.84;;;10.12;100.00
73700;BME280;62005;50.082;8.988;2024-02-04T10:03:30;101353.84;;;10.12;100.00
73700;BME280;62005;50.082;8.988;2024-02-04T10:05:56;101355.13;;;10.16;100.00
73700;BME280;62005;50.082;8.988;2024-02-04T10:08:22;101341.63;;;10.16;100.00
73700;BME280;62005;50.082;8.988;2024-02-04T10:10:47;101343.09;;;10.19;100.00
73700;BME280;62005;50.082;8.988;2024-02-04T10:13:13;101331.25;;;10.20;100.00
73700;BME280;62005;50.082;8.988;2024-02-04T10:15:39;101317.69;;;10.13;100.00
73700;BME280;62005;50.082;8.988;2024-02-04T10:18:05;101334.84;;;10.27;100.00
73700;BME280;62005;50.082;8.988;2024-02-04T10:20:31;101326.53;;;10.28;100.00
73700;BME280;62005;50.082;8.988;2024-02-04T10:23:00;101309.84;;;10.18;100.00
73700;BME280;62005;50.082;8.988;2024-02-04T10:25:26;101335.13;;;10.38;100.00
73700;BME280;62005;50.082;8.988;2024-02-04T10:27:53;101337.44;;;10.41;100.00
73700;BME280;62005;50.082;8.988;2024-02-04T10:30:19;101338.72;;;10.45;100.00
73700;BME280;62005;50.082;8.988;2024-02-04T10:32:46;101333.31;;;10.45;100.00
73700;BME280;62005;50.082;8.988;2024-02-04T10:35:12;101338.72;;;10.45;100.00
73700;BME280;62005;50.082;8.988;2024-02-04T10:37:37;101324.56;;;10.43;100.00
73700;BME280;62005;50.082;8.988;2024-02-04T10:40:03;101325.84;;;10.47;100.00
73700;BME280;62005;50.082;8.988;2024-02-04T10:42:29;101315.41;;;10.44;100.00
73700;BME280;62005;50.082;8.988;2024-02-04T10:44:58;101317.53;;;10.49;100.00
73700;BME280;62005;50.082;8.988;2024-02-04T10:47:31;101321.69;;;10.51;100.00
73700;BME280;62005;50.082;8.988;2024-02-04T10:49:58;101318.78;;;10.53;100.00
73700;BME280;62005;50.082;8.988;2024-02-04T10:52:26;101319.63;;;10.53;100.00
73700;BME280;62005;50.082;8.988;2024-02-04T10:54:53;101315.66;;;10.49;100.00
73700;BME280;62005;50.082;8.988;2024-02-04T10:57:21;101319.22;;;10.57;100.00
73700;BME280;62005;50.082;8.988;2024-02-04T10:59:53;101306.53;;;10.50;100.00
73700;BME280;62005;50.082;8.988;2024-02-04T11:02:19;101311.97;;;10.57;100.00
73700;BME280;62005;50.082;8.988;2024-02-04T11:04:48;101299.28;;;10.58;100.00
73700;BME280;62005;50.082;8.988;2024-02-04T11:07:15;101308.81;;;10.53;100.00
73700;BME280;62005;50.082;8.988;2024-02-04T11:09:45;101295.94;;;10.56;100.00
73700;BME280;62005;50.082;8.988;2024-02-04T11:12:15;101293.47;;;10.61;100.00
73700;BME280;62005;50.082;8.988;2024-02-04T11:14:46;101266.38;;;10.47;100.00
73700;BME280;62005;50.082;8.988;2024-02-04T11:25:52;101276.81;;;10.57;100.00
73700;BME280;62005;50.082;8.988;2024-02-04T11:28:21;101274.72;;;10.52;100.00
73700;BME280;62005;50.082;8.988;2024-02-04T11:30:47;101275.97;;;10.57;100.00
73700;BME280;62005;50.082;8.988;2024-02-04T11:33:18;101262.47;;;10.57;100.00
73700;BME280;62005;50.082;8.988;2024-02-04T11:35:44;101242.25;;;10.46;100.00
73700;BME280;62005;50.082;8.988;2024-02-04T11:38:10;101268.09;;;10.62;100.00
73700;BME280;62005;50.082;8.988;2024-02-04T11:40:39;101265.19;;;10.63;100.00
73700;BME280;62005;50.082;8.988;2024-02-04T11:43:11;101276.44;;;10.67;100.00
73700;BME280;62005;50.082;8.988;2024-02-04T11:45:38;101268.09;;;10.62;100.00
73700;BME280;62005;50.082;8.988;2024-02-04T11:48:10;101274.38;;;10.69;100.00
73700;BME280;62005;50.082;8.988;2024-02-04T11:50:39;101277.72;;;10.71;100.00
73700;BME280;62005;50.082;8.988;2024-02-04T11:53:11;101275.63;;;10.73;100.00
73700;BME280;62005;50.082;8.988;2024-02-04T11:55:39;101268.16;;;10.75;100.00
73700;BME280;62005;50.082;8.988;2024-02-04T11:58:05;101260.69;;;10.77;100.00
73700;BME280;62005;50.082;8.988;2024-02-04T12:00:35;101260.69;;;10.77;100.00
73700;BME280;62005;50.082;8.988;2024-02-04T12:03:01;101260.69;;;10.77;100.00
73700;BME280;62005;50.082;8.988;2024-02-04T12:05:28;101256.50;;;10.68;100.00
73700;BME280;62005;50.082;8.988;2024-02-04T12:07:54;101264.19;;;10.71;100.00
73700;BME280;62005;50.082;8.988;2024-02-04T12:10:20;101229.59;;;10.60;100.00
73700;BME280;62005;50.082;8.988;2024-02-04T12:12:46;101254.63;;;10.75;100.00
73700;BME280;62005;50.082;8.988;2024-02-04T12:15:12;101253.22;;;10.79;100.00
73700;BME280;62005;50.082;8.988;2024-02-04T12:17:38;101256.56;;;10.81;100.00
73700;BME280;62005;50.082;8.988;2024-02-04T12:20:04;101266.31;;;10.82;100.00
73700;BME280;62005;50.082;8.988;2024-02-04T12:22:31;101254.44;;;10.83;100.00
73700;BME280;62005;50.082;8.988;2024-02-04T12:24:57;101236.16;;;10.85;100.00
73700;BME280;62005;50.082;8.988;2024-02-04T12:27:24;101247.44;;;10.95;100.00
73700;BME280;62005;50.082;8.988;2024-02-04T12:29:53;101249.50;;;10.93;100.00
73700;BME280;62005;50.082;8.988;2024-02-04T12:32:18;101240.78;;;10.91;100.00
73700;BME280;62005;50.082;8.988;2024-02-04T12:34:47;101224.94;;;10.88;100.00
73700;BME280;62005;50.082;8.988;2024-02-04T12:37:15;101233.69;;;10.96;100.00
73700;BME280;62005;50.082;8.988;2024-02-04T12:39:41;101229.75;;;10.92;100.00
73700;BME280;62005;50.082;8.988;2024-02-04T12:42:07;101234.94;;;10.94;100.00
73700;BME280;62005;50.082;8.988;2024-02-04T12:44:32;101227.44;;;10.96;100.00
73700;BME280;62005;50.082;8.988;2024-02-04T12:46:58;101234.94;;;10.94;100.00
73700;BME280;62005;50.082;8.988;2024-02-04T12:49:27;101218.09;;;10.92;100.00
73700;BME280;62005;50.082;8.988;2024-02-04T12:52:04;101218.31;;;10.97;100.00